sensor_id;sensor_type;location;lat;lon;timestamp;P1;durP1;ratioP1;P2;durP2;ratioP2
7402;SDS011;3742;48.770;11.440;2022-11-14T00:01:05;14.07;;;11.53;;
7402;SDS011;3742;48.770;11.440;2022-11-14T00:03:53;14.53;;;12.37;;
7402;SDS011;3742;48.770;11.440;2022-11-14T00:06:40;15.83;;;12.03;;
7402;SDS011;3742;48.770;11.440;2022-11-14T00:09:29;17.23;;;13.17;;
7402;SDS011;3742;48.770;11.440;2022-11-14T00:12:17;15.80;;;13.30;;
7402;SDS011;3742;48.770;11.440;2022-11-14T00:15:04;13.30;;;11.80;;
7402;SDS011;3742;48.770;11.440;2022-11-14T00:17:52;15.13;;;11.83;;
7402;SDS011;3742;48.770;11.440;2022-11-14T00:20:39;16.10;;;12.13;;
7402;SDS011;3742;48.770;11.440;2022-11-14T00:23:26;14.13;;;11.70;;
7402;SDS011;3742;48.770;11.440;2022-11-14T00:26:14;14.60;;;11.77;;
7402;SDS011;3742;48.770;11.440;2022-11-14T00:29:02;29.87;;;12.60;;
7402;SDS011;3742;48.770;11.440;2022-11-14T00:31:49;15.20;;;11.13;;
7402;SDS011;3742;48.770;11.440;2022-11-14T00:34:37;19.80;;;11.30;;
7402;SDS011;3742;48.770;11.440;2022-11-14T00:37:24;83.90;;;12.23;;
7402;SDS011;3742;48.770;11.440;2022-11-14T00:40:11;99.53;;;11.73;;
7402;SDS011;3742;48.770;11.440;2022-11-14T00:43:00;74.17;;;13.37;;
7402;SDS011;3742;48.770;11.440;2022-11-14T00:45:48;99.37;;;13.23;;
7402;SDS011;3742;48.770;11.440;2022-11-14T00:48:34;70.50;;;10.30;;
7402;SDS011;3742;48.770;11.440;2022-11-14T00:51:22;74.20;;;12.83;;
7402;SDS011;3742;48.770;11.440;2022-11-14T00:54:09;92.20;;;13.07;;
7402;SDS011;3742;48.770;11.440;2022-11-14T00:56:56;73.97;;;12.50;;
7402;SDS011;3742;48.770;11.440;2022-11-14T00:59:44;60.03;;;11.30;;
7402;SDS011;3742;48.770;11.440;2022-11-14T01:02:32;67.30;;;10.40;;
7402;SDS011;3742;48.770;11.440;2022-11-14T01:05:20;71.77;;;11.10;;
7402;SDS011;3742;48.770;11.440;2022-11-14T01:08:07;54.53;;;10.50;;
7402;SDS011;3742;48.770;11.440;2022-11-14T01:10:56;60.97;;;10.20;;
7402;SDS011;3742;48.770;11.440;2022-11-14T01:13:43;82.07;;;11.30;;
7402;SDS011;3742;48.770;11.440;2022-11-14T01:16:33;74.43;;;11.23;;
7402;SDS011;3742;48.770;11.440;2022-11-14T01:19:20;48.90;;;10.70;;
7402;SDS011;3742;48.770;11.440;2022-11-14T01:22:08;67.80;;;11.70;;
7402;SDS011;3742;48.770;11.440;2022-11-14T01:24:55;52.90;;;11.27;;
7402;SDS011;3742;48.770;11.440;2022-11-14T01:27:42;53.63;;;10.03;;
7402;SDS011;3742;48.770;11.440;2022-11-14T01:30:30;66.90;;;11.27;;
7402;SDS011;3742;48.770;11.440;2022-11-14T01:33:19;52.27;;;10.60;;
7402;SDS011;3742;48.770;11.440;2022-11-14T01:36:08;38.37;;;11.20;;
7402;SDS011;3742;48.770;11.440;2022-11-14T01:38:55;55.80;;;10.07;;
7402;SDS011;3742;48.770;11.440;2022-11-14T01:41:43;56.33;;;10.40;;
7402;SDS011;3742;48.770;11.440;2022-11-14T01:44:43;66.47;;;11.00;;
7402;SDS011;3742;48.770;11.440;2022-11-14T01:47:31;44.07;;;10.90;;
7402;SDS011;3742;48.770;11.440;2022-11-14T01:50:20;51.67;;;10.17;;
7402;SDS011;3742;48.770;11.440;2022-11-14T01:53:07;38.03;;;9.20;;
7402;SDS011;3742;48.770;11.440;2022-11-14T01:55:55;47.43;;;9.93;;
7402;SDS011;3742;48.770;11.440;2022-11-14T01:58:45;52.90;;;10.00;;
7402;SDS011;3742;48.770;11.440;2022-11-14T02:01:36;44.20;;;11.00;;
7402;SDS011;3742;48.770;11.440;2022-11-14T02:04:28;46.00;;;9.57;;
7402;SDS011;3742;48.770;11.440;2022-11-14T02:07:18;42.53;;;10.20;;
7402;SDS011;3742;48.770;11.440;2022-11-14T02:10:07;45.10;;;9.77;;
7402;SDS011;3742;48.770;11.440;2022-11-14T02:12:55;50.90;;;9.97;;
7402;SDS011;3742;48.770;11.440;2022-11-14T02:15:43;46.20;;;10.23;;
7402;SDS011;3742;48.770;11.440;2022-11-14T02:18:30;49.00;;;10.10;;
7402;SDS011;3742;48.770;11.440;2022-11-14T02:21:18;30.93;;;9.27;;
7402;SDS011;3742;48.770;11.440;2022-11-14T02:24:07;46.17;;;9.80;;
7402;SDS011;3742;48.770;11.440;2022-11-14T02:26:55;35.97;;;9.93;;
7402;SDS011;3742;48.770;11.440;2022-11-14T02:29:42;33.90;;;10.87;;
7402;SDS011;3742;48.770;11.440;2022-11-14T02:32:29;56.73;;;10.30;;
7402;SDS011;3742;48.770;11.440;2022-11-14T02:35:36;42.70;;;10.53;;
7402;SDS011;3742;48.770;11.440;2022-11-14T02:38:25;50.63;;;11.27;;
7402;SDS011;3742;48.770;11.440;2022-11-14T02:41:12;39.20;;;11.00;;
7402;SDS011;3742;48.770;11.440;2022-11-14T02:44:00;27.17;;;10.73;;
7402;SDS011;3742;48.770;11.440;2022-11-14T02:46:47;24.33;;;11.00;;
7402;SDS011;3742;48.770;11.440;2022-11-14T02:49:34;44.93;;;11.93;;
7402;SDS011;3742;48.770;11.440;2022-11-14T02:52:21;29.03;;;11.87;;
7402;SDS011;3742;48.770;11.440;2022-11-14T02:55:10;36.63;;;11.83;;
7402;SDS011;3742;48.770;11.440;2022-11-14T02:57:57;38.53;;;11.33;;
7402;SDS011;3742;48.770;11.440;2022-11-14T03:00:44;32.47;;;10.63;;
7402;SDS011;3742;48.770;11.440;2022-11-14T03:03:51;30.53;;;11.30;;
7402;SDS011;3742;48.770;11.440;2022-11-14T03:06:38;37.77;;;10.70;;
7402;SDS011;3742;48.770;11.440;2022-11-14T03:09:26;35.20;;;11.30;;
7402;SDS011;3742;48.770;11.440;2022-11-14T03:12:15;23.83;;;10.83;;
7402;SDS011;3742;48.770;11.440;2022-11-14T03:15:03;38.93;;;11.83;;
7402;SDS011;3742;48.770;11.440;2022-11-14T03:17:52;48.47;;;10.80;;
7402;SDS011;3742;48.770;11.440;2022-11-14T03:20:39;34.33;;;11.27;;
7402;SDS011;3742;48.770;11.440;2022-11-14T03:23:26;36.10;;;12.70;;
7402;SDS011;3742;48.770;11.440;2022-11-14T03:26:14;25.13;;;11.00;;
7402;SDS011;3742;48.770;11.440;2022-11-14T03:29:02;21.57;;;11.43;;
7402;SDS011;3742;48.770;11.440;2022-11-14T03:31:50;25.00;;;11.80;;
7402;SDS011;3742;48.770;11.440;2022-11-14T03:34:37;17.47;;;10.60;;
7402;SDS011;3742;48.770;11.440;2022-11-14T03:37:24;21.47;;;11.47;;
7402;SDS011;3742;48.770;11.440;2022-11-14T03:40:11;22.10;;;12.10;;
7402;SDS011;3742;48.770;11.440;2022-11-14T03:42:58;14.47;;;11.03;;
7402;SDS011;3742;48.770;11.440;2022-11-14T03:45:46;20.47;;;11.93;;
7402;SDS011;3742;48.770;11.440;2022-11-14T03:48:34;15.43;;;11.47;;
7402;SDS011;3742;48.770;11.440;2022-11-14T03:51:21;22.40;;;12.27;;
7402;SDS011;3742;48.770;11.440;2022-11-14T03:54:08;16.23;;;11.77;;
7402;SDS011;3742;48.770;11.440;2022-11-14T03:56:55;14.63;;;12.37;;
7402;SDS011;3742;48.770;11.440;2022-11-14T03:59:43;19.53;;;11.50;;
7402;SDS011;3742;48.770;11.440;2022-11-14T04:02:31;22.90;;;12.53;;
7402;SDS011;3742;48.770;11.440;2022-11-14T04:05:18;21.10;;;11.77;;
7402;SDS011;3742;48.770;11.440;2022-11-14T04:08:05;16.37;;;11.00;;
7402;SDS011;3742;48.770;11.440;2022-11-14T04:10:53;19.17;;;11.97;;
7402;SDS011;3742;48.770;11.440;2022-11-14T04:13:40;17.30;;;11.77;;
7402;SDS011;3742;48.770;11.440;2022-11-14T04:16:27;23.17;;;12.23;;
7402;SDS011;3742;48.770;11.440;2022-11-14T04:19:16;19.30;;;12.87;;
7402;SDS011;3742;48.770;11.440;2022-11-14T04:22:03;19.97;;;11.50;;
7402;SDS011;3742;48.770;11.440;2022-11-14T04:24:51;18.23;;;10.97;;
7402;SDS011;3742;48.770;11.440;2022-11-14T04:27:38;17.53;;;11.37;;
7402;SDS011;3742;48.770;11.440;2022-11-14T04:30:25;17.50;;;11.40;;
7402;SDS011;3742;48.770;11.440;2022-11-14T04:33:18;16.43;;;11.97;;
7402;SDS011;3742;48.770;11.440;2022-11-14T04:36:07;18.77;;;11.53;;
7402;SDS011;3742;48.770;11.440;2022-11-14T04:38:54;14.57;;;11.80;;
7402;SDS011;3742;48.770;11.440;2022-11-14T04:41:41;15.53;;;11.20;;
7402;SDS011;3742;48.770;11.440;2022-11-14T04:44:29;16.03;;;11.53;;
7402;SDS011;3742;48.770;11.440;2022-11-14T04:47:16;14.80;;;11.07;;
7402;SDS011;3742;48.770;11.440;2022-11-14T04:50:03;14.27;;;11.57;;
7402;SDS011;3742;48.770;11.440;2022-11-14T04:52:52;13.80;;;11.17;;
7402;SDS011;3742;48.770;11.440;2022-11-14T04:55:39;15.17;;;11.70;;
7402;SDS011;3742;48.770;11.440;2022-11-14T04:58:26;15.67;;;11.10;;
7402;SDS011;3742;48.770;11.440;2022-11-14T05:01:13;14.63;;;11.53;;
7402;SDS011;3742;48.770;11.440;2022-11-14T05:04:01;13.20;;;11.40;;
7402;SDS011;3742;48.770;11.440;2022-11-14T05:06:48;17.23;;;11.83;;
7402;SDS011;3742;48.770;11.440;2022-11-14T05:09:36;14.23;;;11.23;;
7402;SDS011;3742;48.770;11.440;2022-11-14T05:12:23;13.87;;;10.87;;
7402;SDS011;3742;48.770;11.440;2022-11-14T05:15:10;15.10;;;11.00;;
7402;SDS011;3742;48.770;11.440;2022-11-14T05:17:57;14.83;;;11.13;;
7402;SDS011;3742;48.770;11.440;2022-11-14T05:20:44;15.17;;;10.57;;
7402;SDS011;3742;48.770;11.440;2022-11-14T05:23:31;14.27;;;10.97;;
7402;SDS011;3742;48.770;11.440;2022-11-14T05:26:20;14.13;;;10.80;;
7402;SDS011;3742;48.770;11.440;2022-11-14T05:29:07;14.43;;;10.97;;
7402;SDS011;3742;48.770;11.440;2022-11-14T05:31:54;11.97;;;10.77;;
7402;SDS011;3742;48.770;11.440;2022-11-14T05:34:42;14.80;;;11.27;;
7402;SDS011;3742;48.770;11.440;2022-11-14T05:37:29;15.70;;;10.57;;
7402;SDS011;3742;48.770;11.440;2022-11-14T05:40:16;14.47;;;11.40;;
7402;SDS011;3742;48.770;11.440;2022-11-14T05:43:05;14.20;;;11.17;;
7402;SDS011;3742;48.770;11.440;2022-11-14T05:45:52;13.23;;;11.47;;
7402;SDS011;3742;48.770;11.440;2022-11-14T05:48:40;14.13;;;12.07;;
7402;SDS011;3742;48.770;11.440;2022-11-14T05:51:27;21.27;;;11.80;;
7402;SDS011;3742;48.770;11.440;2022-11-14T05:54:13;15.60;;;11.37;;
7402;SDS011;3742;48.770;11.440;2022-11-14T05:57:00;17.53;;;13.27;;
7402;SDS011;3742;48.770;11.440;2022-11-14T05:59:49;15.33;;;11.63;;
7402;SDS011;3742;48.770;11.440;2022-11-14T06:02:36;14.93;;;11.80;;
7402;SDS011;3742;48.770;11.440;2022-11-14T06:05:24;16.50;;;10.73;;
7402;SDS011;3742;48.770;11.440;2022-11-14T06:08:11;16.13;;;11.10;;
7402;SDS011;3742;48.770;11.440;2022-11-14T06:11:04;22.37;;;11.93;;
7402;SDS011;3742;48.770;11.440;2022-11-14T06:13:52;14.43;;;9.53;;
7402;SDS011;3742;48.770;11.440;2022-11-14T06:16:41;14.77;;;10.83;;
7402;SDS011;3742;48.770;11.440;2022-11-14T06:19:28;16.73;;;10.73;;
7402;SDS011;3742;48.770;11.440;2022-11-14T06:22:15;16.13;;;10.53;;
7402;SDS011;3742;48.770;11.440;2022-11-14T06:25:02;18.27;;;9.77;;
7402;SDS011;3742;48.770;11.440;2022-11-14T06:27:49;19.70;;;10.53;;
7402;SDS011;3742;48.770;11.440;2022-11-14T06:30:37;16.73;;;8.37;;
7402;SDS011;3742;48.770;11.440;2022-11-14T06:33:27;26.70;;;8.50;;
7402;SDS011;3742;48.770;11.440;2022-11-14T06:36:16;26.33;;;9.87;;
7402;SDS011;3742;48.770;11.440;2022-11-14T06:39:03;16.30;;;8.80;;
7402;SDS011;3742;48.770;11.440;2022-11-14T06:41:50;14.63;;;9.07;;
7402;SDS011;3742;48.770;11.440;2022-11-14T06:44:37;17.00;;;9.77;;
7402;SDS011;3742;48.770;11.440;2022-11-14T06:47:24;62.63;;;10.20;;
7402;SDS011;3742;48.770;11.440;2022-11-14T06:50:12;28.53;;;8.73;;
7402;SDS011;3742;48.770;11.440;2022-11-14T06:52:59;15.47;;;9.20;;
7402;SDS011;3742;48.770;11.440;2022-11-14T06:55:56;18.10;;;9.77;;
7402;SDS011;3742;48.770;11.440;2022-11-14T06:58:45;33.03;;;11.30;;
7402;SDS011;3742;48.770;11.440;2022-11-14T07:01:33;62.60;;;11.60;;
7402;SDS011;3742;48.770;11.440;2022-11-14T07:04:20;43.50;;;10.23;;
7402;SDS011;3742;48.770;11.440;2022-11-14T07:07:09;31.07;;;9.23;;
7402;SDS011;3742;48.770;11.440;2022-11-14T07:09:56;43.83;;;10.07;;
7402;SDS011;3742;48.770;11.440;2022-11-14T07:12:43;22.83;;;10.47;;
7402;SDS011;3742;48.770;11.440;2022-11-14T07:15:30;34.07;;;9.97;;
7402;SDS011;3742;48.770;11.440;2022-11-14T07:18:17;55.43;;;10.10;;
7402;SDS011;3742;48.770;11.440;2022-11-14T07:21:05;52.73;;;10.73;;
7402;SDS011;3742;48.770;11.440;2022-11-14T07:23:54;44.50;;;10.43;;
7402;SDS011;3742;48.770;11.440;2022-11-14T07:26:41;25.90;;;9.70;;
7402;SDS011;3742;48.770;11.440;2022-11-14T07:29:28;36.53;;;9.30;;
7402;SDS011;3742;48.770;11.440;2022-11-14T07:32:15;35.43;;;9.93;;
7402;SDS011;3742;48.770;11.440;2022-11-14T07:35:10;51.87;;;9.73;;
7402;SDS011;3742;48.770;11.440;2022-11-14T07:38:00;20.57;;;9.73;;
7402;SDS011;3742;48.770;11.440;2022-11-14T07:40:57;44.03;;;10.33;;
7402;SDS011;3742;48.770;11.440;2022-11-14T07:43:45;124.30;;;32.17;;
7402;SDS011;3742;48.770;11.440;2022-11-14T07:46:33;95.60;;;11.73;;
7402;SDS011;3742;48.770;11.440;2022-11-14T07:49:20;24.43;;;9.87;;
7402;SDS011;3742;48.770;11.440;2022-11-14T07:52:08;58.17;;;11.00;;
7402;SDS011;3742;48.770;11.440;2022-11-14T07:54:55;37.63;;;10.30;;
7402;SDS011;3742;48.770;11.440;2022-11-14T07:57:43;12.60;;;7.80;;
7402;SDS011;3742;48.770;11.440;2022-11-14T08:00:33;12.27;;;6.20;;
7402;SDS011;3742;48.770;11.440;2022-11-14T08:03:21;36.50;;;9.17;;
7402;SDS011;3742;48.770;11.440;2022-11-14T08:06:09;23.43;;;9.90;;
7402;SDS011;3742;48.770;11.440;2022-11-14T08:08:58;32.30;;;10.77;;
7402;SDS011;3742;48.770;11.440;2022-11-14T08:11:45;31.80;;;10.20;;
7402;SDS011;3742;48.770;11.440;2022-11-14T08:14:36;23.60;;;10.23;;
7402;SDS011;3742;48.770;11.440;2022-11-14T08:17:23;12.80;;;9.33;;
7402;SDS011;3742;48.770;11.440;2022-11-14T08:20:10;16.73;;;9.50;;
7402;SDS011;3742;48.770;11.440;2022-11-14T08:23:01;20.90;;;9.73;;
7402;SDS011;3742;48.770;11.440;2022-11-14T08:25:50;20.10;;;10.77;;
7402;SDS011;3742;48.770;11.440;2022-11-14T08:28:38;16.60;;;9.60;;
7402;SDS011;3742;48.770;11.440;2022-11-14T08:31:25;15.37;;;10.13;;
7402;SDS011;3742;48.770;11.440;2022-11-14T08:34:12;16.07;;;10.47;;
7402;SDS011;3742;48.770;11.440;2022-11-14T08:37:00;13.80;;;10.40;;
7402;SDS011;3742;48.770;11.440;2022-11-14T08:39:47;20.60;;;10.33;;
7402;SDS011;3742;48.770;11.440;2022-11-14T08:42:36;19.57;;;10.83;;
7402;SDS011;3742;48.770;11.440;2022-11-14T08:45:23;16.20;;;10.87;;
7402;SDS011;3742;48.770;11.440;2022-11-14T08:48:10;23.73;;;11.27;;
7402;SDS011;3742;48.770;11.440;2022-11-14T08:51:00;17.00;;;10.80;;
7402;SDS011;3742;48.770;11.440;2022-11-14T08:53:48;17.63;;;11.43;;
7402;SDS011;3742;48.770;11.440;2022-11-14T08:56:37;15.20;;;11.70;;
7402;SDS011;3742;48.770;11.440;2022-11-14T08:59:26;22.07;;;12.50;;
7402;SDS011;3742;48.770;11.440;2022-11-14T09:02:13;16.50;;;12.27;;
7402;SDS011;3742;48.770;11.440;2022-11-14T09:05:01;23.13;;;13.10;;
7402;SDS011;3742;48.770;11.440;2022-11-14T09:07:49;15.90;;;12.97;;
7402;SDS011;3742;48.770;11.440;2022-11-14T09:10:36;16.70;;;11.73;;
7402;SDS011;3742;48.770;11.440;2022-11-14T09:13:23;17.73;;;13.17;;
7402;SDS011;3742;48.770;11.440;2022-11-14T09:16:13;18.73;;;13.00;;
7402;SDS011;3742;48.770;11.440;2022-11-14T09:19:01;21.07;;;12.17;;
7402;SDS011;3742;48.770;11.440;2022-11-14T09:21:48;19.20;;;14.23;;
7402;SDS011;3742;48.770;11.440;2022-11-14T09:24:36;15.83;;;13.27;;
7402;SDS011;3742;48.770;11.440;2022-11-14T09:27:25;13.73;;;11.20;;
7402;SDS011;3742;48.770;11.440;2022-11-14T09:30:14;20.00;;;12.77;;
7402;SDS011;3742;48.770;11.440;2022-11-14T09:33:03;19.23;;;13.10;;
7402;SDS011;3742;48.770;11.440;2022-11-14T09:35:56;19.93;;;13.80;;
7402;SDS011;3742;48.770;11.440;2022-11-14T09:38:45;15.90;;;13.23;;
7402;SDS011;3742;48.770;11.440;2022-11-14T09:41:36;16.53;;;13.33;;
7402;SDS011;3742;48.770;11.440;2022-11-14T09:44:34;18.70;;;13.90;;
7402;SDS011;3742;48.770;11.440;2022-11-14T09:47:27;15.70;;;12.93;;
7402;SDS011;3742;48.770;11.440;2022-11-14T09:50:17;16.53;;;13.10;;
7402;SDS011;3742;48.770;11.440;2022-11-14T09:53:12;15.40;;;11.70;;
7402;SDS011;3742;48.770;11.440;2022-11-14T09:56:10;15.70;;;11.93;;
7402;SDS011;3742;48.770;11.440;2022-11-14T09:58:58;14.80;;;11.87;;
7402;SDS011;3742;48.770;11.440;2022-11-14T10:01:47;15.70;;;11.33;;
7402;SDS011;3742;48.770;11.440;2022-11-14T10:04:42;14.33;;;12.90;;
7402;SDS011;3742;48.770;11.440;2022-11-14T10:07:39;16.73;;;12.60;;
7402;SDS011;3742;48.770;11.440;2022-11-14T10:10:37;14.63;;;12.20;;
7402;SDS011;3742;48.770;11.440;2022-11-14T10:13:40;16.17;;;13.13;;
7402;SDS011;3742;48.770;11.440;2022-11-14T10:16:37;16.57;;;11.00;;
7402;SDS011;3742;48.770;11.440;2022-11-14T10:19:29;13.73;;;12.13;;
7402;SDS011;3742;48.770;11.440;2022-11-14T10:22:34;16.00;;;12.40;;
7402;SDS011;3742;48.770;11.440;2022-11-14T10:25:32;19.30;;;12.40;;
7402;SDS011;3742;48.770;11.440;2022-11-14T10:28:32;14.00;;;11.97;;
7402;SDS011;3742;48.770;11.440;2022-11-14T10:31:41;14.53;;;10.73;;
7402;SDS011;3742;48.770;11.440;2022-11-14T10:34:35;15.07;;;12.07;;
7402;SDS011;3742;48.770;11.440;2022-11-14T10:37:28;15.80;;;12.70;;
7402;SDS011;3742;48.770;11.440;2022-11-14T10:40:21;16.03;;;13.17;;
7402;SDS011;3742;48.770;11.440;2022-11-14T10:43:13;18.47;;;13.40;;
7402;SDS011;3742;48.770;11.440;2022-11-14T10:46:06;14.30;;;12.13;;
7402;SDS011;3742;48.770;11.440;2022-11-14T10:48:55;14.17;;;12.20;;
7402;SDS011;3742;48.770;11.440;2022-11-14T10:51:45;14.57;;;11.93;;
7402;SDS011;3742;48.770;11.440;2022-11-14T10:54:38;16.53;;;12.83;;
7402;SDS011;3742;48.770;11.440;2022-11-14T10:57:29;17.40;;;12.73;;
7402;SDS011;3742;48.770;11.440;2022-11-14T11:00:17;14.50;;;11.73;;
7402;SDS011;3742;48.770;11.440;2022-11-14T11:03:08;13.63;;;11.57;;
7402;SDS011;3742;48.770;11.440;2022-11-14T11:05:55;13.47;;;12.00;;
7402;SDS011;3742;48.770;11.440;2022-11-14T11:08:43;14.07;;;12.57;;
7402;SDS011;3742;48.770;11.440;2022-11-14T11:11:52;14.10;;;12.47;;
7402;SDS011;3742;48.770;11.440;2022-11-14T11:14:43;13.63;;;11.57;;
7402;SDS011;3742;48.770;11.440;2022-11-14T11:17:30;19.20;;;15.10;;
7402;SDS011;3742;48.770;11.440;2022-11-14T11:20:27;14.43;;;11.30;;
7402;SDS011;3742;48.770;11.440;2022-11-14T11:23:17;15.40;;;11.47;;
7402;SDS011;3742;48.770;11.440;2022-11-14T11:26:06;14.50;;;11.53;;
7402;SDS011;3742;48.770;11.440;2022-11-14T11:29:00;15.47;;;11.90;;
7402;SDS011;3742;48.770;11.440;2022-11-14T11:32:02;13.67;;;11.43;;
7402;SDS011;3742;48.770;11.440;2022-11-14T11:34:51;14.50;;;12.33;;
7402;SDS011;3742;48.770;11.440;2022-11-14T11:37:39;16.50;;;12.27;;
7402;SDS011;3742;48.770;11.440;2022-11-14T11:40:28;13.33;;;11.93;;
7402;SDS011;3742;48.770;11.440;2022-11-14T11:43:18;15.43;;;11.50;;
7402;SDS011;3742;48.770;11.440;2022-11-14T11:46:28;17.43;;;11.17;;
7402;SDS011;3742;48.770;11.440;2022-11-14T11:49:30;12.50;;;11.10;;
7402;SDS011;3742;48.770;11.440;2022-11-14T11:52:25;13.13;;;11.47;;
7402;SDS011;3742;48.770;11.440;2022-11-14T11:55:17;11.13;;;9.90;;
7402;SDS011;3742;48.770;11.440;2022-11-14T11:58:09;11.43;;;10.23;;
7402;SDS011;3742;48.770;11.440;2022-11-14T12:00:58;11.63;;;10.43;;
7402;SDS011;3742;48.770;11.440;2022-11-14T12:03:46;12.10;;;10.53;;
7402;SDS011;3742;48.770;11.440;2022-11-14T12:06:37;13.13;;;10.87;;
7402;SDS011;3742;48.770;11.440;2022-11-14T12:09:30;13.87;;;10.37;;
7402;SDS011;3742;48.770;11.440;2022-11-14T12:16:02;16.83;;;11.20;;
7402;SDS011;3742;48.770;11.440;2022-11-14T12:22:27;12.30;;;11.00;;
7402;SDS011;3742;48.770;11.440;2022-11-14T12:25:32;14.50;;;11.03;;
7402;SDS011;3742;48.770;11.440;2022-11-14T12:28:28;14.17;;;10.90;;
7402;SDS011;3742;48.770;11.440;2022-11-14T12:31:27;14.33;;;11.33;;
7402;SDS011;3742;48.770;11.440;2022-11-14T12:34:20;12.90;;;10.73;;
7402;SDS011;3742;48.770;11.440;2022-11-14T12:37:14;13.63;;;10.73;;
7402;SDS011;3742;48.770;11.440;2022-11-14T12:40:05;12.53;;;10.70;;
7402;SDS011;3742;48.770;11.440;2022-11-14T12:42:58;12.83;;;10.83;;
7402;SDS011;3742;48.770;11.440;2022-11-14T12:45:59;11.53;;;9.67;;
7402;SDS011;3742;48.770;11.440;2022-11-14T12:48:47;14.77;;;10.57;;
7402;SDS011;3742;48.770;11.440;2022-11-14T12:51:48;15.60;;;10.50;;
7402;SDS011;3742;48.770;11.440;2022-11-14T12:54:42;11.57;;;10.20;;
7402;SDS011;3742;48.770;11.440;2022-11-14T12:57:33;12.97;;;11.03;;
7402;SDS011;3742;48.770;11.440;2022-11-14T13:00:34;12.83;;;10.50;;
7402;SDS011;3742;48.770;11.440;2022-11-14T13:03:26;14.87;;;11.60;;
7402;SDS011;3742;48.770;11.440;2022-11-14T13:06:23;11.47;;;10.37;;
7402;SDS011;3742;48.770;11.440;2022-11-14T13:09:32;11.97;;;10.70;;
7402;SDS011;3742;48.770;11.440;2022-11-14T13:12:25;13.27;;;10.50;;
7402;SDS011;3742;48.770;11.440;2022-11-14T13:15:46;13.80;;;10.40;;
7402;SDS011;3742;48.770;11.440;2022-11-14T13:18:52;12.10;;;9.87;;
7402;SDS011;3742;48.770;11.440;2022-11-14T13:25:31;11.67;;;10.33;;
7402;SDS011;3742;48.770;11.440;2022-11-14T13:31:43;12.87;;;10.47;;
7402;SDS011;3742;48.770;11.440;2022-11-14T13:34:40;11.97;;;10.30;;
7402;SDS011;3742;48.770;11.440;2022-11-14T13:37:38;13.00;;;10.30;;
7402;SDS011;3742;48.770;11.440;2022-11-14T13:40:39;18.67;;;11.27;;
7402;SDS011;3742;48.770;11.440;2022-11-14T13:43:33;11.57;;;10.37;;
7402;SDS011;3742;48.770;11.440;2022-11-14T13:46:39;12.23;;;10.93;;
7402;SDS011;3742;48.770;11.440;2022-11-14T13:49:39;12.43;;;10.07;;
7402;SDS011;3742;48.770;11.440;2022-11-14T13:52:39;11.57;;;9.70;;
7402;SDS011;3742;48.770;11.440;2022-11-14T13:55:30;13.50;;;10.90;;
7402;SDS011;3742;48.770;11.440;2022-11-14T13:58:26;14.23;;;10.50;;
7402;SDS011;3742;48.770;11.440;2022-11-14T14:01:34;11.80;;;10.30;;
7402;SDS011;3742;48.770;11.440;2022-11-14T14:04:33;14.00;;;10.87;;
7402;SDS011;3742;48.770;11.440;2022-11-14T14:07:29;12.23;;;9.80;;
7402;SDS011;3742;48.770;11.440;2022-11-14T14:10:24;16.33;;;10.43;;
7402;SDS011;3742;48.770;11.440;2022-11-14T14:13:18;12.67;;;10.13;;
7402;SDS011;3742;48.770;11.440;2022-11-14T14:16:11;12.10;;;10.80;;
7402;SDS011;3742;48.770;11.440;2022-11-14T14:19:06;17.27;;;12.23;;
7402;SDS011;3742;48.770;11.440;2022-11-14T14:22:00;19.50;;;12.53;;
7402;SDS011;3742;48.770;11.440;2022-11-14T14:24:52;15.33;;;11.57;;
7402;SDS011;3742;48.770;11.440;2022-11-14T14:27:47;13.90;;;11.50;;
7402;SDS011;3742;48.770;11.440;2022-11-14T14:30:40;16.50;;;11.70;;
7402;SDS011;3742;48.770;11.440;2022-11-14T14:33:46;13.63;;;11.90;;
7402;SDS011;3742;48.770;11.440;2022-11-14T14:36:35;13.10;;;11.17;;
7402;SDS011;3742;48.770;11.440;2022-11-14T14:39:24;14.17;;;10.87;;
7402;SDS011;3742;48.770;11.440;2022-11-14T14:42:12;11.93;;;9.60;;
7402;SDS011;3742;48.770;11.440;2022-11-14T14:45:00;15.20;;;10.57;;
7402;SDS011;3742;48.770;11.440;2022-11-14T14:47:49;15.70;;;11.00;;
7402;SDS011;3742;48.770;11.440;2022-11-14T14:50:38;17.43;;;10.77;;
7402;SDS011;3742;48.770;11.440;2022-11-14T14:53:27;12.83;;;10.10;;
7402;SDS011;3742;48.770;11.440;2022-11-14T14:56:18;15.50;;;10.83;;
7402;SDS011;3742;48.770;11.440;2022-11-14T14:59:16;12.43;;;9.53;;
7402;SDS011;3742;48.770;11.440;2022-11-14T15:02:07;11.93;;;9.50;;
7402;SDS011;3742;48.770;11.440;2022-11-14T15:04:59;15.93;;;10.47;;
7402;SDS011;3742;48.770;11.440;2022-11-14T15:07:46;18.10;;;11.27;;
7402;SDS011;3742;48.770;11.440;2022-11-14T15:10:35;14.33;;;10.10;;
7402;SDS011;3742;48.770;11.440;2022-11-14T15:13:24;10.73;;;9.30;;
7402;SDS011;3742;48.770;11.440;2022-11-14T15:16:13;16.60;;;10.90;;
7402;SDS011;3742;48.770;11.440;2022-11-14T15:19:00;10.93;;;9.80;;
7402;SDS011;3742;48.770;11.440;2022-11-14T15:22:00;11.40;;;10.20;;
7402;SDS011;3742;48.770;11.440;2022-11-14T15:28:11;13.87;;;10.53;;
7402;SDS011;3742;48.770;11.440;2022-11-14T15:31:02;9.80;;;8.80;;
7402;SDS011;3742;48.770;11.440;2022-11-14T15:34:00;12.00;;;10.80;;
7402;SDS011;3742;48.770;11.440;2022-11-14T15:37:16;12.47;;;9.70;;
7402;SDS011;3742;48.770;11.440;2022-11-14T15:40:16;11.50;;;10.30;;
7402;SDS011;3742;48.770;11.440;2022-11-14T15:46:26;13.73;;;10.73;;
7402;SDS011;3742;48.770;11.440;2022-11-14T15:49:24;12.77;;;10.70;;
7402;SDS011;3742;48.770;11.440;2022-11-14T15:52:16;11.30;;;9.73;;
7402;SDS011;3742;48.770;11.440;2022-11-14T15:55:09;13.03;;;11.00;;
7402;SDS011;3742;48.770;11.440;2022-11-14T15:57:59;14.30;;;10.73;;
7402;SDS011;3742;48.770;11.440;2022-11-14T16:01:07;11.93;;;10.67;;
7402;SDS011;3742;48.770;11.440;2022-11-14T16:04:01;10.30;;;9.20;;
7402;SDS011;3742;48.770;11.440;2022-11-14T16:06:49;11.87;;;9.50;;
7402;SDS011;3742;48.770;11.440;2022-11-14T16:09:36;12.63;;;10.07;;
7402;SDS011;3742;48.770;11.440;2022-11-14T16:12:24;15.20;;;11.13;;
7402;SDS011;3742;48.770;11.440;2022-11-14T16:15:11;12.77;;;9.93;;
7402;SDS011;3742;48.770;11.440;2022-11-14T16:17:59;12.40;;;11.17;;
7402;SDS011;3742;48.770;11.440;2022-11-14T16:20:48;14.33;;;12.23;;
7402;SDS011;3742;48.770;11.440;2022-11-14T16:23:43;18.37;;;12.90;;
7402;SDS011;3742;48.770;11.440;2022-11-14T16:26:30;14.63;;;13.03;;
7402;SDS011;3742;48.770;11.440;2022-11-14T16:29:17;18.57;;;14.00;;
7402;SDS011;3742;48.770;11.440;2022-11-14T16:32:07;15.57;;;13.37;;
7402;SDS011;3742;48.770;11.440;2022-11-14T16:34:55;13.53;;;11.83;;
7402;SDS011;3742;48.770;11.440;2022-11-14T16:37:43;13.17;;;11.67;;
7402;SDS011;3742;48.770;11.440;2022-11-14T16:40:31;15.27;;;11.30;;
7402;SDS011;3742;48.770;11.440;2022-11-14T16:43:18;16.60;;;11.20;;
7402;SDS011;3742;48.770;11.440;2022-11-14T16:46:06;15.97;;;12.30;;
7402;SDS011;3742;48.770;11.440;2022-11-14T16:48:53;14.20;;;10.83;;
7402;SDS011;3742;48.770;11.440;2022-11-14T16:51:40;12.80;;;11.40;;
7402;SDS011;3742;48.770;11.440;2022-11-14T16:54:35;12.80;;;10.63;;
7402;SDS011;3742;48.770;11.440;2022-11-14T16:57:23;14.20;;;10.20;;
7402;SDS011;3742;48.770;11.440;2022-11-14T17:00:11;11.10;;;10.00;;
7402;SDS011;3742;48.770;11.440;2022-11-14T17:02:59;12.03;;;9.80;;
7402;SDS011;3742;48.770;11.440;2022-11-14T17:05:47;14.10;;;9.80;;
7402;SDS011;3742;48.770;11.440;2022-11-14T17:08:35;13.17;;;9.53;;
7402;SDS011;3742;48.770;11.440;2022-11-14T17:11:23;14.00;;;10.73;;
7402;SDS011;3742;48.770;11.440;2022-11-14T17:14:11;17.80;;;10.80;;